Terminal Aerodrome Forecast
Issued by NWS

Home | Current Version | Previous Version | Text Only | Print | Product List | Glossary On
Versions: 1 2 3 4 5 6 7 8 9 10 11 12 13 14 15
896
FTUS45 KTFX 282334
TAFCTB
TAF
KCTB 282334Z 2900/2924 15007KT P6SM SKC
     FM290600 02006KT P6SM SCT150
     FM291800 06006KT P6SM SCT120=

USA.gov is the U.S. government's official web portal to all federal, state and local government web resources and services.